Time,TemperatureF,DewpointF,PressureIn,WindDirection,WindDirectionDegrees,WindSpeedMPH,WindSpeedGustMPH,Humidity,HourlyPrecipIn,Conditions,Clouds,dailyrainin,SoftwareType,DateUTC
2013-07-05 00:04:00,85.5,63.0,29.62,WSW,244,4.0,5.0,47,0.00,,,0.00,Wunderground v.1.15,2013-07-05 07:04:00,
2013-07-05 00:09:00,85.7,63.1,29.62,SW,229,1.0,5.0,47,0.00,,,0.00,Wunderground v.1.15,2013-07-05 07:09:00,
2013-07-05 00:14:00,85.8,62.6,29.62,SW,219,1.0,4.0,46,0.00,,,0.00,Wunderground v.1.15,2013-07-05 07:14:00,
2013-07-05 00:19:00,85.9,62.1,29.62,WSW,240,4.0,4.0,45,0.00,,,0.00,Wunderground v.1.15,2013-07-05 07:19:00,
2013-07-05 00:25:00,86.1,62.3,29.63,SW,233,2.0,3.0,45,0.00,,,0.00,Wunderground v.1.15,2013-07-05 07:25:00,
2013-07-05 00:30:00,86.0,62.2,29.63,WSW,245,5.0,5.0,45,0.00,,,0.00,Wunderground v.1.15,2013-07-05 07:30:00,
2013-07-05 00:35:00,85.9,62.1,29.63,WSW,241,6.0,6.0,45,0.00,,,0.00,Wunderground v.1.15,2013-07-05 07:35:00,
2013-07-05 00:40:00,85.8,62.0,29.63,WSW,245,3.0,6.0,45,0.00,,,0.00,Wunderground v.1.15,2013-07-05 07:40:00,
2013-07-05 00:45:00,85.7,62.5,29.63,SSE,148,1.0,4.0,46,0.00,,,0.00,Wunderground v.1.15,2013-07-05 07:45:00,
2013-07-05 00:51:00,85.6,62.4,29.63,WSW,242,0.0,1.0,46,0.00,,,0.00,Wunderground v.1.15,2013-07-05 07:51:00,
2013-07-05 00:56:00,85.6,62.4,29.63,WSW,243,4.0,4.0,46,0.00,,,0.00,Wunderground v.1.15,2013-07-05 07:56:00,
2013-07-05 01:01:00,85.5,62.4,29.63,WSW,245,2.0,2.0,46,0.00,,,0.00,Wunderground v.1.15,2013-07-05 08:01:00,
2013-07-05 01:06:00,85.1,62.6,29.63,West,259,1.0,2.0,47,0.00,,,0.00,Wunderground v.1.15,2013-07-05 08:06:00,
2013-07-05 01:11:00,84.4,63.2,29.63,West,269,3.0,4.0,49,0.00,,,0.00,Wunderground v.1.15,2013-07-05 08:11:00,
2013-07-05 01:17:00,83.4,63.4,29.63,West,260,4.0,4.0,51,0.00,,,0.00,Wunderground v.1.15,2013-07-05 08:17:00,
2013-07-05 01:22:00,83.0,63.6,29.63,West,264,2.0,4.0,52,0.00,,,0.00,Wunderground v.1.15,2013-07-05 08:22:00,
2013-07-05 01:27:00,82.7,63.3,29.63,West,259,4.0,4.0,52,0.00,,,0.00,Wunderground v.1.15,2013-07-05 08:27:00,
2013-07-05 01:32:00,82.5,63.6,29.63,WSW,257,2.0,3.0,53,0.00,,,0.00,Wunderground v.1.15,2013-07-05 08:32:00,
2013-07-05 01:37:00,82.1,63.8,29.63,SW,231,3.0,3.0,54,0.00,,,0.00,Wunderground v.1.15,2013-07-05 08:37:00,
2013-07-05 01:43:00,82.6,63.2,29.63,SSW,207,1.0,3.0,52,0.00,,,0.00,Wunderground v.1.15,2013-07-05 08:43:00,
2013-07-05 01:48:00,83.2,63.2,29.62,SE,137,1.0,3.0,51,0.00,,,0.00,Wunderground v.1.15,2013-07-05 08:48:00,
2013-07-05 01:53:00,83.9,62.7,29.62,SSE,148,0.0,1.0,49,0.00,,,0.00,Wunderground v.1.15,2013-07-05 08:53:00,
2013-07-05 01:59:00,84.7,62.8,29.62,SW,218,0.0,2.0,48,0.00,,,0.00,Wunderground v.1.15,2013-07-05 08:59:00,
2013-07-05 02:04:00,85.3,62.8,29.62,WSW,252,0.0,5.0,47,0.00,,,0.00,Wunderground v.1.15,2013-07-05 09:04:00,
2013-07-05 02:09:00,85.7,62.5,29.62,ENE,65,0.0,5.0,46,0.00,,,0.00,Wunderground v.1.15,2013-07-05 09:09:00,
2013-07-05 02:14:00,85.9,62.1,29.62,West,267,0.0,2.0,45,0.00,,,0.00,Wunderground v.1.15,2013-07-05 09:14:00,
2013-07-05 02:19:00,86.4,61.9,29.62,West,262,3.0,3.0,44,0.00,,,0.00,Wunderground v.1.15,2013-07-05 09:19:00,
2013-07-05 02:24:00,86.6,62.7,29.62,NW,319,1.0,3.0,45,0.00,,,0.00,Wunderground v.1.15,2013-07-05 09:24:00,
2013-07-05 02:29:00,86.5,62.6,29.62,SSW,193,0.0,3.0,45,0.00,,,0.00,Wunderground v.1.15,2013-07-05 09:29:00,
2013-07-05 02:34:00,86.6,62.1,29.62,West,266,2.0,2.0,44,0.00,,,0.00,Wunderground v.1.15,2013-07-05 09:34:00,
2013-07-05 02:40:00,86.1,63.5,29.62,WNW,300,2.0,4.0,47,0.00,,,0.00,Wunderground v.1.15,2013-07-05 09:40:00,
2013-07-05 02:45:00,84.5,64.4,29.62,West,271,4.0,6.0,51,0.00,,,0.00,Wunderground v.1.15,2013-07-05 09:45:00,
2013-07-05 02:50:00,83.8,64.8,29.63,West,280,4.0,4.0,53,0.00,,,0.00,Wunderground v.1.15,2013-07-05 09:50:00,
2013-07-05 02:55:00,83.7,64.8,29.62,West,260,0.0,6.0,53,0.00,,,0.00,Wunderground v.1.15,2013-07-05 09:55:00,
2013-07-05 03:00:00,84.0,61.6,29.62,SW,236,1.0,4.0,47,0.00,,,0.00,Wunderground v.1.15,2013-07-05 10:00:00,
2013-07-05 03:05:00,84.8,64.1,29.63,SW,236,0.0,4.0,50,0.00,,,0.00,Wunderground v.1.15,2013-07-05 10:05:00,
2013-07-05 03:11:00,84.3,65.3,29.62,West,268,5.0,5.0,53,0.00,,,0.00,Wunderground v.1.15,2013-07-05 10:11:00,
2013-07-05 03:16:00,83.5,65.1,29.62,WSW,242,4.0,5.0,54,0.00,,,0.00,Wunderground v.1.15,2013-07-05 10:16:00,
2013-07-05 03:21:00,83.3,65.4,29.62,WSW,246,2.0,4.0,55,0.00,,,0.00,Wunderground v.1.15,2013-07-05 10:21:00,
2013-07-05 03:26:00,83.0,65.7,29.63,SW,233,4.0,5.0,56,0.00,,,0.00,Wunderground v.1.15,2013-07-05 10:26:00,
2013-07-05 03:31:00,82.8,65.5,29.63,WSW,250,1.0,3.0,56,0.00,,,0.00,Wunderground v.1.15,2013-07-05 10:31:00,
2013-07-05 03:36:00,82.8,65.5,29.63,SW,229,0.0,3.0,56,0.00,,,0.00,Wunderground v.1.15,2013-07-05 10:36:00,
2013-07-05 03:41:00,82.9,65.1,29.62,SSW,211,0.0,2.0,55,0.00,,,0.00,Wunderground v.1.15,2013-07-05 10:41:00,
2013-07-05 03:46:00,83.1,65.3,29.62,WSW,243,3.0,3.0,55,0.00,,,0.00,Wunderground v.1.15,2013-07-05 10:46:00,
2013-07-05 03:52:00,83.2,65.4,29.62,SE,135,0.0,1.0,55,0.00,,,0.00,Wunderground v.1.15,2013-07-05 10:52:00,
2013-07-05 03:57:00,83.2,65.4,29.62,WSW,253,1.0,2.0,55,0.00,,,0.00,Wunderground v.1.15,2013-07-05 10:57:00,
2013-07-05 04:02:00,83.0,65.7,29.63,West,259,3.0,4.0,56,0.00,,,0.00,Wunderground v.1.15,2013-07-05 11:02:00,
2013-07-05 04:07:00,82.3,66.0,29.62,WSW,248,2.0,4.0,58,0.00,,,0.00,Wunderground v.1.15,2013-07-05 11:07:00,
2013-07-05 04:12:00,82.3,66.0,29.62,WSW,241,4.0,5.0,58,0.00,,,0.00,Wunderground v.1.15,2013-07-05 11:12:00,
2013-07-05 04:17:00,82.5,65.7,29.62,WSW,253,3.0,5.0,57,0.00,,,0.00,Wunderground v.1.15,2013-07-05 11:17:00,
2013-07-05 04:22:00,82.5,65.7,29.63,West,261,2.0,3.0,57,0.00,,,0.00,Wunderground v.1.15,2013-07-05 11:22:00,
2013-07-05 04:27:00,82.4,66.1,29.63,West,266,3.0,4.0,58,0.00,,,0.00,Wunderground v.1.15,2013-07-05 11:27:00,
2013-07-05 04:32:00,82.3,66.0,29.62,West,278,3.0,4.0,58,0.00,,,0.00,Wunderground v.1.15,2013-07-05 11:32:00,
2013-07-05 04:37:00,82.3,66.0,29.62,South,184,1.0,5.0,58,0.00,,,0.00,Wunderground v.1.15,2013-07-05 11:37:00,
2013-07-05 04:42:00,82.3,66.0,29.62,WSW,250,1.0,5.0,58,0.00,,,0.00,Wunderground v.1.15,2013-07-05 11:42:00,
2013-07-05 04:47:00,82.1,65.9,29.63,WSW,250,1.0,5.0,58,0.00,,,0.00,Wunderground v.1.15,2013-07-05 11:47:00,
2013-07-05 04:52:00,81.9,66.2,29.63,WSW,252,1.0,2.0,59,0.00,,,0.00,Wunderground v.1.15,2013-07-05 11:52:00,
2013-07-05 04:57:00,81.7,66.0,29.63,WSW,242,3.0,3.0,59,0.00,,,0.00,Wunderground v.1.15,2013-07-05 11:57:00,
2013-07-05 05:02:00,81.6,65.9,29.63,West,264,2.0,2.0,59,0.00,,,0.00,Wunderground v.1.15,2013-07-05 12:02:00,
2013-07-05 05:07:00,81.5,66.3,29.63,West,259,1.0,3.0,60,0.00,,,0.00,Wunderground v.1.15,2013-07-05 12:07:00,
2013-07-05 05:12:00,81.3,66.1,29.63,West,264,2.0,3.0,60,0.00,,,0.00,Wunderground v.1.15,2013-07-05 12:12:00,
2013-07-05 05:17:00,81.0,65.8,29.63,West,264,3.0,3.0,60,0.00,,,0.00,Wunderground v.1.15,2013-07-05 12:17:00,
2013-07-05 05:22:00,81.0,65.8,29.63,SW,219,2.0,4.0,60,0.00,,,0.00,Wunderground v.1.15,2013-07-05 12:22:00,
2013-07-05 05:27:00,81.0,65.8,29.63,WSW,238,4.0,4.0,60,0.00,,,0.00,Wunderground v.1.15,2013-07-05 12:27:00,
2013-07-05 05:32:00,81.1,65.4,29.64,WSW,252,2.0,4.0,59,0.00,,,0.00,Wunderground v.1.15,2013-07-05 12:32:00,
2013-07-05 05:38:00,81.0,65.3,29.64,WSW,240,2.0,4.0,59,0.00,,,0.00,Wunderground v.1.15,2013-07-05 12:38:00,
2013-07-05 05:43:00,80.9,65.2,29.64,West,264,2.0,4.0,59,0.00,,,0.00,Wunderground v.1.15,2013-07-05 12:43:00,
2013-07-05 05:48:00,80.9,65.2,29.64,WSW,242,2.0,4.0,59,0.00,,,0.00,Wunderground v.1.15,2013-07-05 12:48:00,
2013-07-05 05:53:00,81.0,65.3,29.65,SW,236,1.0,2.0,59,0.00,,,0.00,Wunderground v.1.15,2013-07-05 12:53:00,
2013-07-05 05:58:00,81.0,65.3,29.65,SSW,211,0.0,3.0,59,0.00,,,0.00,Wunderground v.1.15,2013-07-05 12:58:00,
2013-07-05 06:03:00,81.0,65.3,29.65,WSW,240,3.0,3.0,59,0.00,,,0.00,Wunderground v.1.15,2013-07-05 13:03:00,
2013-07-05 06:08:00,81.1,64.9,29.65,WSW,240,3.0,3.0,58,0.00,,,0.00,Wunderground v.1.15,2013-07-05 13:08:00,
2013-07-05 06:13:00,81.1,64.9,29.65,SW,221,0.0,4.0,58,0.00,,,0.00,Wunderground v.1.15,2013-07-05 13:13:00,
2013-07-05 06:18:00,81.4,65.2,29.65,WSW,238,2.0,4.0,58,0.00,,,0.00,Wunderground v.1.15,2013-07-05 13:18:00,
2013-07-05 06:24:00,81.8,64.1,29.66,WSW,239,2.0,4.0,55,0.00,,,0.00,Wunderground v.1.15,2013-07-05 13:24:00,
2013-07-05 06:29:00,82.2,64.4,29.66,WSW,240,3.0,4.0,55,0.00,,,0.00,Wunderground v.1.15,2013-07-05 13:29:00,
2013-07-05 06:34:00,82.3,64.0,29.66,WSW,248,3.0,6.0,54,0.00,,,0.00,Wunderground v.1.15,2013-07-05 13:34:00,
2013-07-05 06:39:00,82.4,64.6,29.66,WSW,241,1.0,6.0,55,0.00,,,0.00,Wunderground v.1.15,2013-07-05 13:39:00,
2013-07-05 06:44:00,82.6,64.3,29.66,SW,233,2.0,5.0,54,0.00,,,0.00,Wunderground v.1.15,2013-07-05 13:44:00,
2013-07-05 06:49:00,82.7,64.4,29.66,WSW,246,5.0,5.0,54,0.00,,,0.00,Wunderground v.1.15,2013-07-05 13:49:00,
2013-07-05 06:54:00,82.7,63.8,29.66,SW,231,2.0,6.0,53,0.00,,,0.00,Wunderground v.1.15,2013-07-05 13:54:00,
2013-07-05 06:59:00,82.8,63.9,29.66,SSE,167,0.0,6.0,53,0.00,,,0.00,Wunderground v.1.15,2013-07-05 13:59:00,
2013-07-05 07:04:00,82.9,64.5,29.67,SW,231,2.0,3.0,54,0.00,,,0.00,Wunderground v.1.15,2013-07-05 14:04:00,
2013-07-05 07:09:00,83.0,64.6,29.67,WSW,255,1.0,3.0,54,0.00,,,0.00,Wunderground v.1.15,2013-07-05 14:09:00,
2013-07-05 07:14:00,83.1,64.7,29.67,West,266,2.0,4.0,54,0.00,,,0.00,Wunderground v.1.15,2013-07-05 14:14:00,
2013-07-05 07:19:00,83.1,64.2,29.67,West,259,2.0,4.0,53,0.00,,,0.00,Wunderground v.1.15,2013-07-05 14:19:00,
2013-07-05 07:25:00,83.1,64.2,29.67,WSW,256,3.0,5.0,53,0.00,,,0.00,Wunderground v.1.15,2013-07-05 14:25:00,
2013-07-05 07:30:00,83.1,64.2,29.68,WSW,240,0.0,5.0,53,0.00,,,0.00,Wunderground v.1.15,2013-07-05 14:30:00,
2013-07-05 07:35:00,83.4,64.5,29.68,SW,221,0.0,3.0,53,0.00,,,0.00,Wunderground v.1.15,2013-07-05 14:35:00,
2013-07-05 07:40:00,83.7,64.2,29.68,WSW,248,1.0,1.0,52,0.00,,,0.00,Wunderground v.1.15,2013-07-05 14:40:00,
2013-07-05 07:45:00,84.0,64.5,29.68,WSW,245,1.0,2.0,52,0.00,,,0.00,Wunderground v.1.15,2013-07-05 14:45:00,
2013-07-05 07:50:00,84.3,64.2,29.69,SW,233,2.0,2.0,51,0.00,,,0.00,Wunderground v.1.15,2013-07-05 14:50:00,
2013-07-05 07:55:00,84.6,63.3,29.69,WSW,256,2.0,4.0,49,0.00,,,0.00,Wunderground v.1.15,2013-07-05 14:55:00,
2013-07-05 08:00:00,85.0,63.1,29.69,WSW,241,2.0,3.0,48,0.00,,,0.00,Wunderground v.1.15,2013-07-05 15:00:00,
2013-07-05 08:05:00,85.2,62.7,29.69,SSW,212,2.0,7.0,47,0.00,,,0.00,Wunderground v.1.15,2013-07-05 15:05:00,
2013-07-05 08:10:00,85.4,62.3,29.69,SW,232,1.0,3.0,46,0.00,,,0.00,Wunderground v.1.15,2013-07-05 15:10:00,
2013-07-05 08:15:00,85.7,62.5,29.70,SW,226,6.0,6.0,46,0.00,,,0.00,Wunderground v.1.15,2013-07-05 15:15:00,
2013-07-05 08:20:00,86.1,62.3,29.70,SW,233,3.0,3.0,45,0.00,,,0.00,Wunderground v.1.15,2013-07-05 15:20:00,
2013-07-05 08:25:00,86.5,62.6,29.70,WSW,245,2.0,5.0,45,0.00,,,0.00,Wunderground v.1.15,2013-07-05 15:25:00,
2013-07-05 08:30:00,86.9,63.0,29.70,West,266,2.0,4.0,45,0.00,,,0.00,Wunderground v.1.15,2013-07-05 15:30:00,
2013-07-05 08:35:00,87.3,62.7,29.70,West,270,3.0,6.0,44,0.00,,,0.00,Wunderground v.1.15,2013-07-05 15:35:00,
2013-07-05 08:40:00,87.3,67.0,29.70,WSW,257,2.0,3.0,51,0.00,,,0.00,Wunderground v.1.15,2013-07-05 15:40:00,
2013-07-05 08:45:00,87.1,66.8,29.70,West,267,4.0,5.0,51,0.00,,,0.00,Wunderground v.1.15,2013-07-05 15:45:00,
2013-07-05 08:49:00,87.2,65.7,29.70,West,280,4.0,7.0,49,0.00,,,0.00,Wunderground v.1.15,2013-07-05 15:49:00,
2013-07-05 08:54:00,87.8,65.7,29.70,WSW,255,4.0,5.0,48,0.00,,,0.00,Wunderground v.1.15,2013-07-05 15:54:00,
2013-07-05 08:59:00,88.2,66.0,29.70,West,268,4.0,6.0,48,0.00,,,0.00,Wunderground v.1.15,2013-07-05 15:59:00,
2013-07-05 09:04:00,88.8,65.4,29.70,West,259,3.0,8.0,46,0.00,,,0.00,Wunderground v.1.15,2013-07-05 16:04:00,
2013-07-05 09:09:00,89.4,66.5,29.70,West,263,4.0,8.0,47,0.00,,,0.00,Wunderground v.1.15,2013-07-05 16:09:00,
2013-07-05 09:14:00,89.7,68.6,29.71,WSW,255,5.0,6.0,50,0.00,,,0.00,Wunderground v.1.15,2013-07-05 16:14:00,
2013-07-05 09:19:00,89.8,66.9,29.71,WSW,257,7.0,7.0,47,0.00,,,0.00,Wunderground v.1.15,2013-07-05 16:19:00,
2013-07-05 09:24:00,90.6,66.3,29.71,West,260,8.0,12.0,45,0.00,,,0.00,Wunderground v.1.15,2013-07-05 16:24:00,
2013-07-05 09:29:00,91.6,63.1,29.71,SW,225,11.0,12.0,39,0.00,,,0.00,Wunderground v.1.15,2013-07-05 16:29:00,
2013-07-05 09:34:00,92.7,64.1,29.70,West,262,8.0,12.0,39,0.00,,,0.00,Wunderground v.1.15,2013-07-05 16:34:00,
2013-07-05 09:39:00,93.1,62.2,29.70,WSW,256,12.0,12.0,36,0.00,,,0.00,Wunderground v.1.15,2013-07-05 16:39:00,
2013-07-05 09:45:00,93.4,61.7,29.70,WSW,248,7.0,12.0,35,0.00,,,0.00,Wunderground v.1.15,2013-07-05 16:45:00,
2013-07-05 09:49:00,93.6,64.2,29.70,SW,236,6.0,12.0,38,0.00,,,0.00,Wunderground v.1.15,2013-07-05 16:49:00,
2013-07-05 09:54:00,93.3,63.9,29.71,WSW,252,5.0,12.0,38,0.00,,,0.00,Wunderground v.1.15,2013-07-05 16:54:00,
2013-07-05 10:00:00,93.2,64.6,29.71,West,273,8.0,8.0,39,0.00,,,0.00,Wunderground v.1.15,2013-07-05 17:00:00,
2013-07-05 10:05:00,92.5,63.9,29.71,WSW,240,10.0,12.0,39,0.00,,,0.00,Wunderground v.1.15,2013-07-05 17:05:00,
2013-07-05 10:10:00,92.4,63.9,29.71,West,264,9.0,9.0,39,0.00,,,0.00,Wunderground v.1.15,2013-07-05 17:10:00,
2013-07-05 10:15:00,92.4,66.0,29.71,West,266,8.0,13.0,42,0.00,,,0.00,Wunderground v.1.15,2013-07-05 17:15:00,
2013-07-05 10:20:00,92.2,65.1,29.71,SW,222,3.0,6.0,41,0.00,,,0.00,Wunderground v.1.15,2013-07-05 17:20:00,
2013-07-05 10:25:00,92.5,63.9,29.71,SW,231,9.0,11.0,39,0.00,,,0.00,Wunderground v.1.15,2013-07-05 17:25:00,
2013-07-05 10:30:00,92.7,64.8,29.71,SW,228,4.0,6.0,40,0.00,,,0.00,Wunderground v.1.15,2013-07-05 17:30:00,
2013-07-05 10:35:00,92.7,65.6,29.71,WSW,249,6.0,10.0,41,0.00,,,0.00,Wunderground v.1.15,2013-07-05 17:35:00,
2013-07-05 10:40:00,92.5,65.4,29.71,WSW,255,5.0,6.0,41,0.00,,,0.00,Wunderground v.1.15,2013-07-05 17:40:00,
2013-07-05 10:45:00,92.1,64.3,29.71,SW,231,9.0,12.0,40,0.00,,,0.00,Wunderground v.1.15,2013-07-05 17:45:00,
2013-07-05 10:50:00,92.1,64.3,29.71,West,273,6.0,9.0,40,0.00,,,0.00,Wunderground v.1.15,2013-07-05 17:50:00,
2013-07-05 10:55:00,92.2,64.4,29.71,SW,226,10.0,11.0,40,0.00,,,0.00,Wunderground v.1.15,2013-07-05 17:55:00,
2013-07-05 11:00:00,92.4,65.3,29.71,WSW,240,6.0,7.0,41,0.00,,,0.00,Wunderground v.1.15,2013-07-05 18:00:00,
2013-07-05 11:05:00,92.7,64.8,29.71,West,281,3.0,12.0,40,0.00,,,0.00,Wunderground v.1.15,2013-07-05 18:05:00,
2013-07-05 11:11:00,92.5,65.4,29.71,WSW,253,7.0,9.0,41,0.00,,,0.00,Wunderground v.1.15,2013-07-05 18:11:00,
2013-07-05 11:16:00,92.2,65.1,29.71,WSW,257,7.0,11.0,41,0.00,,,0.00,Wunderground v.1.15,2013-07-05 18:16:00,
2013-07-05 11:21:00,92.4,65.3,29.71,West,260,8.0,10.0,41,0.00,,,0.00,Wunderground v.1.15,2013-07-05 18:21:00,
2013-07-05 11:26:00,92.4,65.3,29.71,West,260,4.0,10.0,41,0.00,,,0.00,Wunderground v.1.15,2013-07-05 18:26:00,
2013-07-05 11:31:00,92.5,65.4,29.71,South,174,5.0,6.0,41,0.00,,,0.00,Wunderground v.1.15,2013-07-05 18:31:00,
2013-07-05 11:36:00,92.9,65.0,29.71,West,267,6.0,10.0,40,0.00,,,0.00,Wunderground v.1.15,2013-07-05 18:36:00,
2013-07-05 11:41:00,93.4,64.7,29.71,West,263,5.0,9.0,39,0.00,,,0.00,Wunderground v.1.15,2013-07-05 18:41:00,
2013-07-05 11:46:00,93.9,65.2,29.71,WSW,245,6.0,9.0,39,0.00,,,0.00,Wunderground v.1.15,2013-07-05 18:46:00,
2013-07-05 11:51:00,94.5,65.7,29.71,SW,224,5.0,10.0,39,0.00,,,0.00,Wunderground v.1.15,2013-07-05 18:51:00,
2013-07-05 11:56:00,95.5,65.1,29.70,WSW,248,5.0,10.0,37,0.00,,,0.00,Wunderground v.1.15,2013-07-05 18:56:00,
2013-07-05 12:02:00,96.1,64.8,29.70,West,259,5.0,11.0,36,0.00,,,0.00,Wunderground v.1.15,2013-07-05 19:02:00,
2013-07-05 12:07:00,96.9,66.3,29.70,West,276,6.0,11.0,37,0.00,,,0.00,Wunderground v.1.15,2013-07-05 19:07:00,
2013-07-05 12:12:00,97.0,64.0,29.70,WSW,245,8.0,11.0,34,0.00,,,0.00,Wunderground v.1.15,2013-07-05 19:12:00,
2013-07-05 12:17:00,97.9,63.0,29.70,WSW,255,10.0,13.0,32,0.00,,,0.00,Wunderground v.1.15,2013-07-05 19:17:00,
2013-07-05 12:22:00,98.1,62.3,29.70,WSW,256,9.0,12.0,31,0.00,,,0.00,Wunderground v.1.15,2013-07-05 19:22:00,
2013-07-05 12:27:00,98.9,63.0,29.70,WSW,243,8.0,13.0,31,0.00,,,0.00,Wunderground v.1.15,2013-07-05 19:27:00,
2013-07-05 12:32:00,98.9,62.1,29.69,West,269,6.0,11.0,30,0.00,,,0.00,Wunderground v.1.15,2013-07-05 19:32:00,
2013-07-05 12:37:00,99.7,59.8,29.69,West,271,5.0,13.0,27,0.00,,,0.00,Wunderground v.1.15,2013-07-05 19:37:00,
2013-07-05 12:42:00,99.5,61.6,29.69,WSW,248,12.0,14.0,29,0.00,,,0.00,Wunderground v.1.15,2013-07-05 19:42:00,
2013-07-05 12:47:00,99.6,62.7,29.69,WSW,257,9.0,17.0,30,0.00,,,0.00,Wunderground v.1.15,2013-07-05 19:47:00,
2013-07-05 12:52:00,100.0,63.0,29.68,WSW,239,8.0,14.0,30,0.00,,,0.00,Wunderground v.1.15,2013-07-05 19:52:00,
2013-07-05 12:57:00,100.2,64.1,29.68,WNW,283,9.0,18.0,31,0.00,,,0.00,Wunderground v.1.15,2013-07-05 19:57:00,
2013-07-05 13:02:00,100.1,61.1,29.68,ESE,121,2.0,16.0,28,0.00,,,0.00,Wunderground v.1.15,2013-07-05 20:02:00,
2013-07-05 13:07:00,100.2,63.2,29.67,WSW,240,14.0,17.0,30,0.00,,,0.00,Wunderground v.1.15,2013-07-05 20:07:00,
2013-07-05 13:12:00,100.6,60.5,29.67,WSW,253,11.0,18.0,27,0.00,,,0.00,Wunderground v.1.15,2013-07-05 20:12:00,
2013-07-05 13:17:00,101.0,60.9,29.67,SSE,158,6.0,18.0,27,0.00,,,0.00,Wunderground v.1.15,2013-07-05 20:17:00,
2013-07-05 13:22:00,101.5,60.2,29.67,WSW,257,13.0,16.0,26,0.00,,,0.00,Wunderground v.1.15,2013-07-05 20:22:00,
2013-07-05 13:27:00,101.7,61.5,29.67,West,271,10.0,18.0,27,0.00,,,0.00,Wunderground v.1.15,2013-07-05 20:27:00,
2013-07-05 13:28:00,101.7,61.5,29.67,WSW,248,8.0,18.0,27,0.00,,,0.00,Wunderground v.1.15,2013-07-05 20:28:00,
2013-07-05 13:33:00,101.5,63.3,29.67,WSW,257,10.0,15.0,29,0.00,,,0.00,Wunderground v.1.15,2013-07-05 20:33:00,
2013-07-05 13:38:00,100.2,62.2,29.66,SW,225,10.0,16.0,29,0.00,,,0.00,Wunderground v.1.15,2013-07-05 20:38:00,
2013-07-05 13:43:00,100.3,61.3,29.66,SW,233,10.0,20.0,28,0.00,,,0.00,Wunderground v.1.15,2013-07-05 20:43:00,
2013-07-05 13:48:00,100.4,64.3,29.66,West,271,6.0,20.0,31,0.00,,,0.00,Wunderground v.1.15,2013-07-05 20:48:00,
2013-07-05 13:53:00,100.9,63.8,29.65,WSW,253,4.0,15.0,30,0.00,,,0.00,Wunderground v.1.15,2013-07-05 20:53:00,
2013-07-05 13:58:00,101.6,62.4,29.65,West,262,8.0,17.0,28,0.00,,,0.00,Wunderground v.1.15,2013-07-05 20:58:00,
2013-07-05 14:03:00,101.3,62.2,29.65,WSW,253,8.0,20.0,28,0.00,,,0.00,Wunderground v.1.15,2013-07-05 21:03:00,
2013-07-05 14:08:00,101.0,62.9,29.65,SSW,213,9.0,20.0,29,0.00,,,0.00,Wunderground v.1.15,2013-07-05 21:08:00,
2013-07-05 14:13:00,101.5,61.3,29.65,SW,225,9.0,14.0,27,0.00,,,0.00,Wunderground v.1.15,2013-07-05 21:13:00,
2013-07-05 14:18:00,101.7,59.3,29.64,SW,236,9.0,17.0,25,0.00,,,0.00,Wunderground v.1.15,2013-07-05 21:18:00,
2013-07-05 14:23:00,101.5,61.3,29.64,WSW,253,7.0,17.0,27,0.00,,,0.00,Wunderground v.1.15,2013-07-05 21:23:00,
2013-07-05 14:28:00,101.2,61.0,29.64,WSW,238,6.0,19.0,27,0.00,,,0.00,Wunderground v.1.15,2013-07-05 21:28:00,
2013-07-05 14:33:00,101.1,61.0,29.64,SW,233,12.0,14.0,27,0.00,,,0.00,Wunderground v.1.15,2013-07-05 21:33:00,
2013-07-05 14:38:00,100.7,60.6,29.63,SW,221,4.0,18.0,27,0.00,,,0.00,Wunderground v.1.15,2013-07-05 21:38:00,
2013-07-05 14:43:00,100.2,61.2,29.63,SW,236,11.0,18.0,28,0.00,,,0.00,Wunderground v.1.15,2013-07-05 21:43:00,
2013-07-05 14:48:00,100.2,61.2,29.63,SSW,198,2.0,21.0,28,0.00,,,0.00,Wunderground v.1.15,2013-07-05 21:48:00,
2013-07-05 14:53:00,100.1,61.1,29.63,WSW,243,7.0,18.0,28,0.00,,,0.00,Wunderground v.1.15,2013-07-05 21:53:00,
2013-07-05 14:58:00,99.7,62.7,29.62,SW,223,6.0,18.0,30,0.00,,,0.00,Wunderground v.1.15,2013-07-05 21:58:00,
2013-07-05 15:03:00,99.5,63.5,29.62,SW,214,6.0,14.0,31,0.00,,,0.00,Wunderground v.1.15,2013-07-05 22:03:00,
2013-07-05 15:08:00,99.8,62.8,29.62,WSW,237,10.0,15.0,30,0.00,,,0.00,Wunderground v.1.15,2013-07-05 22:08:00,
2013-07-05 15:13:00,100.0,63.0,29.62,West,270,6.0,14.0,30,0.00,,,0.00,Wunderground v.1.15,2013-07-05 22:13:00,
2013-07-05 15:19:00,100.0,63.0,29.61,SW,233,9.0,14.0,30,0.00,,,0.00,Wunderground v.1.15,2013-07-05 22:19:00,
2013-07-05 15:24:00,100.6,61.6,29.61,SW,217,11.0,14.0,28,0.00,,,0.00,Wunderground v.1.15,2013-07-05 22:24:00,
2013-07-05 15:29:00,101.6,62.4,29.61,NW,304,3.0,14.0,28,0.00,,,0.00,Wunderground v.1.15,2013-07-05 22:29:00,
2013-07-05 15:34:00,102.4,61.0,29.61,West,264,8.0,12.0,26,0.00,,,0.00,Wunderground v.1.15,2013-07-05 22:34:00,
2013-07-05 15:39:00,102.7,61.2,29.61,WSW,253,3.0,13.0,26,0.00,,,0.00,Wunderground v.1.15,2013-07-05 22:39:00,
2013-07-05 15:44:00,101.9,59.5,29.60,SW,224,3.0,17.0,25,0.00,,,0.00,Wunderground v.1.15,2013-07-05 22:44:00,
2013-07-05 15:49:00,101.2,60.0,29.60,SW,221,11.0,17.0,26,0.00,,,0.00,Wunderground v.1.15,2013-07-05 22:49:00,
2013-07-05 15:54:00,100.7,60.6,29.60,WSW,248,6.0,16.0,27,0.00,,,0.00,Wunderground v.1.15,2013-07-05 22:54:00,
2013-07-05 15:59:00,100.5,61.5,29.61,WSW,246,10.0,16.0,28,0.00,,,0.00,Wunderground v.1.15,2013-07-05 22:59:00,
2013-07-05 16:04:00,100.1,64.0,29.60,West,265,9.0,15.0,31,0.00,,,0.00,Wunderground v.1.15,2013-07-05 23:04:00,
2013-07-05 16:09:00,100.4,63.3,29.60,West,263,6.0,16.0,30,0.00,,,0.00,Wunderground v.1.15,2013-07-05 23:09:00,
2013-07-05 16:14:00,100.5,59.4,29.60,NW,323,3.0,16.0,26,0.00,,,0.00,Wunderground v.1.15,2013-07-05 23:14:00,
2013-07-05 16:19:00,100.7,58.5,29.60,SSW,203,6.0,16.0,25,0.00,,,0.00,Wunderground v.1.15,2013-07-05 23:19:00,
2013-07-05 16:24:00,100.4,57.1,29.60,West,260,11.0,16.0,24,0.00,,,0.00,Wunderground v.1.15,2013-07-05 23:24:00,
2013-07-05 16:30:00,99.7,58.7,29.61,SW,219,2.0,16.0,26,0.00,,,0.00,Wunderground v.1.15,2013-07-05 23:30:00,
2013-07-05 16:34:00,99.2,58.3,29.60,WSW,248,4.0,10.0,26,0.00,,,0.00,Wunderground v.1.15,2013-07-05 23:34:00,
2013-07-05 16:39:00,98.9,58.0,29.60,WSW,242,7.0,10.0,26,0.00,,,0.00,Wunderground v.1.15,2013-07-05 23:39:00,
2013-07-05 16:44:00,98.8,58.0,29.60,SW,236,4.0,11.0,26,0.00,,,0.00,Wunderground v.1.15,2013-07-05 23:44:00,
2013-07-05 16:50:00,98.7,57.9,29.60,WSW,245,6.0,6.0,26,0.00,,,0.00,Wunderground v.1.15,2013-07-05 23:50:00,
2013-07-05 16:55:00,98.7,58.9,29.60,SW,233,1.0,9.0,27,0.00,,,0.00,Wunderground v.1.15,2013-07-05 23:55:00,
2013-07-05 17:00:00,98.7,59.9,29.60,WSW,243,6.0,6.0,28,0.00,,,0.00,Wunderground v.1.15,2013-07-06 00:00:00,
2013-07-05 17:05:00,98.2,61.5,29.60,SW,235,3.0,11.0,30,0.00,,,0.00,Wunderground v.1.15,2013-07-06 00:05:00,
2013-07-05 17:10:00,98.1,61.4,29.60,SW,235,5.0,9.0,30,0.00,,,0.00,Wunderground v.1.15,2013-07-06 00:10:00,
2013-07-05 17:16:00,98.3,61.5,29.60,SW,232,4.0,9.0,30,0.00,,,0.00,Wunderground v.1.15,2013-07-06 00:16:00,
2013-07-05 17:21:00,98.8,62.0,29.59,SE,132,3.0,6.0,30,0.00,,,0.00,Wunderground v.1.15,2013-07-06 00:21:00,
2013-07-05 17:26:00,99.5,60.6,29.59,SW,236,1.0,10.0,28,0.00,,,0.00,Wunderground v.1.15,2013-07-06 00:26:00,
2013-07-05 17:31:00,100.0,61.0,29.59,ESE,104,5.0,7.0,28,0.00,,,0.00,Wunderground v.1.15,2013-07-06 00:31:00,
2013-07-05 17:36:00,100.1,62.1,29.59,WSW,250,9.0,9.0,29,0.00,,,0.00,Wunderground v.1.15,2013-07-06 00:36:00,
2013-07-05 17:41:00,100.3,61.3,29.59,West,274,5.0,9.0,28,0.00,,,0.00,Wunderground v.1.15,2013-07-06 00:41:00,
2013-07-05 17:46:00,100.5,61.5,29.59,SW,219,1.0,10.0,28,0.00,,,0.00,Wunderground v.1.15,2013-07-06 00:46:00,
2013-07-05 17:51:00,100.6,60.5,29.59,WSW,243,3.0,8.0,27,0.00,,,0.00,Wunderground v.1.15,2013-07-06 00:51:00,
2013-07-05 17:56:00,100.7,61.6,29.59,WSW,253,6.0,8.0,28,0.00,,,0.00,Wunderground v.1.15,2013-07-06 00:56:00,
2013-07-05 18:01:00,101.0,60.9,29.58,WSW,250,2.0,7.0,27,0.00,,,0.00,Wunderground v.1.15,2013-07-06 01:01:00,
2013-07-05 18:06:00,101.3,61.1,29.58,SE,131,0.0,7.0,27,0.00,,,0.00,Wunderground v.1.15,2013-07-06 01:06:00,
2013-07-05 18:11:00,101.4,65.1,29.58,West,269,4.0,9.0,31,0.00,,,0.00,Wunderground v.1.15,2013-07-06 01:11:00,
2013-07-05 18:16:00,99.9,65.6,29.58,West,269,7.0,9.0,33,0.00,,,0.00,Wunderground v.1.15,2013-07-06 01:16:00,
2013-07-05 18:21:00,99.6,62.7,29.58,WSW,240,7.0,9.0,30,0.00,,,0.00,Wunderground v.1.15,2013-07-06 01:21:00,
2013-07-05 18:26:00,99.8,60.9,29.58,SW,217,5.0,10.0,28,0.00,,,0.00,Wunderground v.1.15,2013-07-06 01:26:00,
2013-07-05 18:31:00,99.7,61.8,29.58,SSW,210,5.0,8.0,29,0.00,,,0.00,Wunderground v.1.15,2013-07-06 01:31:00,
2013-07-05 18:36:00,99.6,60.7,29.58,West,267,3.0,8.0,28,0.00,,,0.00,Wunderground v.1.15,2013-07-06 01:36:00,
2013-07-05 18:41:00,99.6,59.7,29.58,West,265,6.0,7.0,27,0.00,,,0.00,Wunderground v.1.15,2013-07-06 01:41:00,
2013-07-05 18:42:00,99.6,59.7,29.58,South,170,2.0,7.0,27,0.00,,,0.00,Wunderground v.1.15,2013-07-06 01:42:00,
2013-07-05 18:47:00,99.2,59.3,29.58,SE,136,4.0,11.0,27,0.00,,,0.00,Wunderground v.1.15,2013-07-06 01:47:00,
2013-07-05 18:52:00,98.8,59.0,29.58,SSW,198,2.0,8.0,27,0.00,,,0.00,Wunderground v.1.15,2013-07-06 01:52:00,
2013-07-05 18:57:00,98.4,57.6,29.58,WSW,242,1.0,8.0,26,0.00,,,0.00,Wunderground v.1.15,2013-07-06 01:57:00,
2013-07-05 19:02:00,98.2,56.4,29.58,South,179,4.0,9.0,25,0.00,,,0.00,Wunderground v.1.15,2013-07-06 02:02:00,
2013-07-05 19:07:00,98.1,55.1,29.58,WSW,255,2.0,12.0,24,0.00,,,0.00,Wunderground v.1.15,2013-07-06 02:07:00,
2013-07-05 19:12:00,98.0,55.1,29.58,SSW,207,3.0,9.0,24,0.00,,,0.00,Wunderground v.1.15,2013-07-06 02:12:00,
2013-07-05 19:17:00,98.0,53.9,29.58,WSW,258,6.0,10.0,23,0.00,,,0.00,Wunderground v.1.15,2013-07-06 02:17:00,
2013-07-05 19:22:00,97.8,53.7,29.58,SW,236,3.0,7.0,23,0.00,,,0.00,Wunderground v.1.15,2013-07-06 02:22:00,
2013-07-05 19:27:00,97.6,53.6,29.58,WSW,243,3.0,9.0,23,0.00,,,0.00,Wunderground v.1.15,2013-07-06 02:27:00,
2013-07-05 19:32:00,97.4,54.6,29.58,SW,232,2.0,11.0,24,0.00,,,0.00,Wunderground v.1.15,2013-07-06 02:32:00,
2013-07-05 19:37:00,97.2,54.4,29.58,East,84,3.0,11.0,24,0.00,,,0.00,Wunderground v.1.15,2013-07-06 02:37:00,
2013-07-05 19:42:00,96.9,54.1,29.58,SE,141,1.0,5.0,24,0.00,,,0.00,Wunderground v.1.15,2013-07-06 02:42:00,
2013-07-05 19:47:00,96.6,53.9,29.58,West,271,0.0,6.0,24,0.00,,,0.00,Wunderground v.1.15,2013-07-06 02:47:00,
2013-07-05 19:52:00,96.2,54.7,29.59,South,187,2.0,3.0,25,0.00,,,0.00,Wunderground v.1.15,2013-07-06 02:52:00,
2013-07-05 19:58:00,95.8,54.3,29.59,SW,219,0.0,4.0,25,0.00,,,0.00,Wunderground v.1.15,2013-07-06 02:58:00,
2013-07-05 20:03:00,95.5,54.1,29.59,South,178,0.0,4.0,25,0.00,,,0.00,Wunderground v.1.15,2013-07-06 03:03:00,
2013-07-05 20:08:00,95.3,53.9,29.59,ESE,113,1.0,4.0,25,0.00,,,0.00,Wunderground v.1.15,2013-07-06 03:08:00,
2013-07-05 20:13:00,95.1,53.7,29.59,WSW,240,2.0,2.0,25,0.00,,,0.00,Wunderground v.1.15,2013-07-06 03:13:00,
2013-07-05 20:18:00,95.0,53.7,29.59,WSW,246,3.0,5.0,25,0.00,,,0.00,Wunderground v.1.15,2013-07-06 03:18:00,
2013-07-05 20:23:00,94.7,52.3,29.59,WSW,240,0.0,4.0,24,0.00,,,0.00,Wunderground v.1.15,2013-07-06 03:23:00,
2013-07-05 20:28:00,94.6,52.2,29.59,SSE,160,2.0,4.0,24,0.00,,,0.00,Wunderground v.1.15,2013-07-06 03:28:00,
2013-07-05 20:33:00,94.5,52.1,29.59,SW,236,0.0,5.0,24,0.00,,,0.00,Wunderground v.1.15,2013-07-06 03:33:00,
2013-07-05 20:38:00,94.4,52.0,29.60,WSW,246,1.0,6.0,24,0.00,,,0.00,Wunderground v.1.15,2013-07-06 03:38:00,
2013-07-05 20:43:00,94.0,51.7,29.60,WSW,245,1.0,4.0,24,0.00,,,0.00,Wunderground v.1.15,2013-07-06 03:43:00,
2013-07-05 20:48:00,93.5,51.3,29.60,WSW,241,0.0,4.0,24,0.00,,,0.00,Wunderground v.1.15,2013-07-06 03:48:00,
2013-07-05 20:53:00,93.3,51.1,29.60,SW,214,0.0,1.0,24,0.00,,,0.00,Wunderground v.1.15,2013-07-06 03:53:00,
2013-07-05 20:58:00,93.2,51.0,29.60,SSE,148,0.0,4.0,24,0.00,,,0.00,Wunderground v.1.15,2013-07-06 03:58:00,
2013-07-05 21:01:00,93.2,51.0,29.60,SSE,163,0.0,1.0,24,0.00,,,0.00,Wunderground v.1.15,2013-07-06 04:01:00,
2013-07-05 21:06:00,93.0,50.9,29.61,ESE,120,0.0,2.0,24,0.00,,,0.00,Wunderground v.1.15,2013-07-06 04:06:00,
2013-07-05 21:11:00,92.8,50.7,29.61,SSW,211,0.0,0.0,24,0.00,,,0.00,Wunderground v.1.15,2013-07-06 04:11:00,
2013-07-05 21:16:00,92.6,50.5,29.61,SW,219,0.0,1.0,24,0.00,,,0.00,Wunderground v.1.15,2013-07-06 04:16:00,
2013-07-05 21:21:00,92.4,50.4,29.61,SW,220,0.0,0.0,24,0.00,,,0.00,Wunderground v.1.15,2013-07-06 04:21:00,
2013-07-05 21:26:00,92.4,50.4,29.62,SW,229,0.0,2.0,24,0.00,,,0.00,Wunderground v.1.15,2013-07-06 04:26:00,
2013-07-05 21:31:00,92.4,50.4,29.62,SW,221,0.0,1.0,24,0.00,,,0.00,Wunderground v.1.15,2013-07-06 04:31:00,
2013-07-05 21:37:00,92.0,50.0,29.62,SW,214,0.0,1.0,24,0.00,,,0.00,Wunderground v.1.15,2013-07-06 04:37:00,
2013-07-05 21:42:00,91.6,50.8,29.62,SW,214,0.0,0.0,25,0.00,,,0.00,Wunderground v.1.15,2013-07-06 04:42:00,
2013-07-05 21:47:00,91.3,51.6,29.62,West,263,0.0,1.0,26,0.00,,,0.00,Wunderground v.1.15,2013-07-06 04:47:00,
2013-07-05 21:52:00,89.2,55.5,29.63,West,279,2.0,3.0,32,0.00,,,0.00,Wunderground v.1.15,2013-07-06 04:52:00,
2013-07-05 21:57:00,87.5,57.3,29.63,West,280,0.0,3.0,36,0.00,,,0.00,Wunderground v.1.15,2013-07-06 04:57:00,
2013-07-05 22:02:00,86.2,58.3,29.63,West,274,0.0,1.0,39,0.00,,,0.00,Wunderground v.1.15,2013-07-06 05:02:00,
2013-07-05 22:07:00,85.6,55.6,29.63,WSW,248,1.0,1.0,36,0.00,,,0.00,Wunderground v.1.15,2013-07-06 05:07:00,
2013-07-05 22:12:00,86.1,56.8,29.63,SW,233,1.0,2.0,37,0.00,,,0.00,Wunderground v.1.15,2013-07-06 05:12:00,
2013-07-05 22:17:00,86.0,57.4,29.63,WSW,242,2.0,2.0,38,0.00,,,0.00,Wunderground v.1.15,2013-07-06 05:17:00,
2013-07-05 22:22:00,85.6,57.1,29.63,WSW,240,1.0,1.0,38,0.00,,,0.00,Wunderground v.1.15,2013-07-06 05:22:00,
2013-07-05 22:27:00,85.8,55.8,29.63,SW,234,0.0,2.0,36,0.00,,,0.00,Wunderground v.1.15,2013-07-06 05:27:00,
2013-07-05 22:32:00,86.0,55.2,29.63,WSW,246,0.0,1.0,35,0.00,,,0.00,Wunderground v.1.15,2013-07-06 05:32:00,
2013-07-05 22:37:00,85.9,55.1,29.63,WSW,243,0.0,1.0,35,0.00,,,0.00,Wunderground v.1.15,2013-07-06 05:37:00,
2013-07-05 22:42:00,85.8,55.0,29.64,WSW,243,0.0,0.0,35,0.00,,,0.00,Wunderground v.1.15,2013-07-06 05:42:00,
2013-07-05 22:47:00,85.9,55.1,29.64,WSW,245,0.0,1.0,35,0.00,,,0.00,Wunderground v.1.15,2013-07-06 05:47:00,
2013-07-05 22:52:00,85.8,57.3,29.64,WNW,302,0.0,0.0,38,0.00,,,0.00,Wunderground v.1.15,2013-07-06 05:52:00,
2013-07-05 22:57:00,85.0,58.0,29.64,WNW,302,0.0,1.0,40,0.00,,,0.00,Wunderground v.1.15,2013-07-06 05:57:00,
2013-07-05 23:02:00,84.3,58.0,29.64,NW,305,0.0,0.0,41,0.00,,,0.00,Wunderground v.1.15,2013-07-06 06:02:00,
2013-07-05 23:07:00,84.1,58.5,29.64,WNW,294,0.0,0.0,42,0.00,,,0.00,Wunderground v.1.15,2013-07-06 06:07:00,
2013-07-05 23:12:00,83.9,57.7,29.64,WNW,287,0.0,0.0,41,0.00,,,0.00,Wunderground v.1.15,2013-07-06 06:12:00,
2013-07-05 23:18:00,84.4,54.5,29.64,WNW,283,0.0,1.0,36,0.00,,,0.00,Wunderground v.1.15,2013-07-06 06:18:00,
2013-07-05 23:22:00,86.0,52.7,29.64,NNW,346,0.0,1.0,32,0.00,,,0.00,Wunderground v.1.15,2013-07-06 06:22:00,
2013-07-05 23:27:00,87.9,52.6,29.64,NW,316,1.0,1.0,30,0.00,,,0.00,Wunderground v.1.15,2013-07-06 06:27:00,
2013-07-05 23:33:00,89.4,53.0,29.64,NW,312,1.0,3.0,29,0.00,,,0.00,Wunderground v.1.15,2013-07-06 06:33:00,
2013-07-05 23:38:00,90.4,51.9,29.64,NE,39,0.0,3.0,27,0.00,,,0.00,Wunderground v.1.15,2013-07-06 06:38:00,
2013-07-05 23:43:00,91.1,51.4,29.64,NE,53,1.0,3.0,26,0.00,,,0.00,Wunderground v.1.15,2013-07-06 06:43:00,
2013-07-05 23:48:00,91.4,50.6,29.64,NW,305,2.0,3.0,25,0.00,,,0.00,Wunderground v.1.15,2013-07-06 06:48:00,
2013-07-05 23:53:00,91.5,50.7,29.64,NNW,338,1.0,1.0,25,0.00,,,0.00,Wunderground v.1.15,2013-07-06 06:53:00,
2013-07-05 23:58:00,91.5,49.6,29.64,NNW,332,0.0,3.0,24,0.00,,,0.00,Wunderground v.1.15,2013-07-06 06:58:00,